Thunder radar more information blitzortung!


Radar de pluja more information rain snow radar


Visita la nostra xarxa de llocs de meteo:

Template documentation
and downloads

And another site



No particular awareness of the weather is required.    There are no Weather-warnings

Pagina Historial Weather Underground text

Diari Resum January 8, 2018 Unitats:  Mètric    Imperial   Tant
« Previous Dia
SegĂźent Dia »
Diari Setmana Mensual Anual Personalitzada
  Maxima: Minima: Media:
Temperatura: -17.8 °C -16.3 °C -13.9 °C
Punt de rosada: -17.8 °C -17.8 °C -16.3 °C
Humitat: Humidity % 66 % 75 %
Wind Speed: 0 km/h 0 km/h 8.2 km/h
RĂ fegues de vent: 0 km/h - -
Vent:- - SSW
Pression baro: 0 hPa 34130.9 hPa -
Precipitacions: 0 mm    
Historical Graphs
 
 
Dades de taula per January 8, 2018
Temps Temperatura Punt de rosada Pression baro Vent Wind Speed RĂ fegues de vent Humitat Rainfall Rate (Hourly)
-17.8 °C -17.8 °C 0 hPa Calm     Humidity % 0 mm
00:05 -16.1 °C -17.3 °C 34130.9 hPa WSW 5.1 km/h 7.7 km/h 85 % 0 mm
00:15 -16.1 °C -17.3 °C 34130.9 hPa WSW 5.1 km/h 5.1 km/h 85 % 0 mm
00:25 -16 °C -17.2 °C 34130.9 hPa Calm   7.7 km/h 86 % 0 mm
01:05 -16.2 °C -17.3 °C 34130.9 hPa Calm   2.6 km/h 86 % 0 mm
01:15 -16.2 °C -17.3 °C 34130.9 hPa Calm     87 % 0 mm
01:25 -16.2 °C -17.3 °C 34130.9 hPa Calm   5.1 km/h 87 % 0 mm
01:55 -16.3 °C -17.4 °C 34164.7 hPa WSW 5.1 km/h 5.1 km/h 86 % 0 mm
02:55 -16.1 °C -17.1 °C 34198.6 hPa West 5.1 km/h 5.1 km/h 87 % 0 mm
03:05 -16.1 °C -17.2 °C 34198.6 hPa West 2.6 km/h 10.3 km/h 87 % 0 mm
03:15 -16.1 °C -17.1 °C 34198.6 hPa WSW 2.6 km/h 5.1 km/h 87 % 0 mm
03:25 -15.9 °C -17.1 °C 34198.6 hPa Calm   7.7 km/h 87 % 0 mm
03:45 -15.9 °C -17 °C 34198.6 hPa West 2.6 km/h 5.1 km/h 87 % 0 mm
03:55 -15.8 °C -16.9 °C 34164.7 hPa Calm   5.1 km/h 87 % 0 mm
04:05 -15.7 °C -16.8 °C 34198.6 hPa West 2.6 km/h 10.3 km/h 87 % 0 mm
04:25 -15.6 °C -16.6 °C 34198.6 hPa Calm     88 % 0 mm
04:55 -14.9 °C -15.7 °C 34198.6 hPa SW 5.1 km/h 5.1 km/h 90 % 0 mm
11:07 -14.4 °C -15.4 °C 34222.3 hPa WSW 9 km/h 9 km/h 88 % 0 mm
11:12 -14.4 °C -15.5 °C 34222.3 hPa SW 7.6 km/h 7.6 km/h 87 % 0 mm
11:13 -14.4 °C -15.5 °C 34222.3 hPa SW 9 km/h 9 km/h 87 % 0 mm
11:18 -14.3 °C -15.4 °C 34222.3 hPa ENE 9 km/h 9 km/h 87 % 0 mm
11:23 -14.2 °C -15.3 °C 34222.3 hPa East 6 km/h 6 km/h 87 % 0 mm
11:28 -14.1 °C -15.3 °C 34222.3 hPa ENE 3.7 km/h 3.7 km/h 86 % 0 mm
11:29 -14.1 °C -15.3 °C 34222.3 hPa WNW 5.6 km/h 5.6 km/h 86 % 0 mm
11:34 -14.1 °C -15.3 °C 34222.3 hPa NE 11.9 km/h 11.9 km/h 86 % 0 mm
11:37 -14 °C -15.2 °C 34198.6 hPa NNE 11.9 km/h 11.9 km/h 86 % 0 mm
11:42 -14.1 °C -15.4 °C 34198.6 hPa NNE 12.7 km/h 12.7 km/h 85 % 0 mm
11:45 -14 °C -15.3 °C 34198.6 hPa North 15 km/h 15 km/h 85 % 0 mm
11:50 -13.9 °C -15.2 °C 34198.6 hPa North 11.9 km/h 11.9 km/h 85 % 0 mm
11:52 -13.9 °C -15.2 °C 34198.6 hPa ENE 11.9 km/h 11.9 km/h 85 % 0 mm
11:58 -13.8 °C -15.2 °C 34198.6 hPa NNE 11.9 km/h 11.9 km/h 84 % 0 mm
12:03 -13.8 °C -15.3 °C 34198.6 hPa NE 9 km/h 9 km/h 83 % 0 mm
12:08 -13.8 °C -15.4 °C 34198.6 hPa ENE 15 km/h 15 km/h 82 % 0 mm
12:09 -13.9 °C -15.5 °C 34198.6 hPa NE 15 km/h 15 km/h 82 % 0 mm
12:13 -13.8 °C -15.4 °C 34198.6 hPa ENE 9 km/h 9 km/h 81 % 0 mm
12:18 -13.8 °C -15.4 °C 34198.6 hPa NNE 9 km/h 9 km/h 81 % 0 mm
12:22 -13.6 °C -15.2 °C 34198.6 hPa NNW 6 km/h 6 km/h 81 % 0 mm
12:27 -13.4 °C -15.2 °C 34198.6 hPa NE 6 km/h   81 % 0 mm
12:29 -13.5 °C -15.2 °C 34198.6 hPa NE 3.1 km/h   81 % 0 mm
12:34 -13.5 °C -15.3 °C 34198.6 hPa NNE 6.8 km/h 6.8 km/h 80 % 0 mm
12:40 -13.4 °C -15.2 °C 34198.6 hPa East 2.6 km/h 7.7 km/h 80 % 0 mm
12:45 -13.3 °C -15.1 °C 34198.6 hPa NE 7.6 km/h 7.6 km/h 80 % 0 mm
12:51 -13.2 °C -15.1 °C 34198.6 hPa NNE 11.9 km/h 11.9 km/h 80 % 0 mm
12:56 -13.3 °C -15.2 °C 34198.6 hPa NNE 11.9 km/h 11.9 km/h 79 % 0 mm
13:02 -13 °C -14.9 °C 34198.6 hPa West 6.3 km/h 6.3 km/h 79 % 0 mm
13:07 -12.8 °C -14.7 °C 34198.6 hPa NNW 3.1 km/h   79 % 0 mm
13:12 -12.7 °C -14.6 °C 34198.6 hPa NE 6 km/h 6 km/h 79 % 0 mm
13:18 -12.7 °C -14.7 °C 34198.6 hPa NNE 9 km/h 9 km/h 78 % 0 mm
13:23 -12.6 °C -14.6 °C 34164.7 hPa NNE 9 km/h 9 km/h 78 % 0 mm
13:29 -12.5 °C -14.6 °C 34164.7 hPa ENE 9.3 km/h 9.3 km/h 78 % 0 mm
13:34 -12.5 °C -14.6 °C 34164.7 hPa NE 9 km/h 9 km/h 77 % 0 mm
13:39 -12.4 °C -14.6 °C 34130.9 hPa NE 9 km/h 9 km/h 77 % 0 mm
13:42 -12.3 °C -14.4 °C 34130.9 hPa NNE 6.8 km/h 6.8 km/h 77 % 0 mm
13:45 -12.3 °C -14.5 °C 34130.9 hPa NE 6.3 km/h 9.3 km/h 76 % 0 mm
13:49 -12.2 °C -14.5 °C 34130.9 hPa NNE 10.3 km/h 10.3 km/h 76 % 0 mm
13:53 -12.2 °C -14.7 °C 34130.9 hPa ENE 15 km/h 15 km/h 74 % 0 mm
13:58 -12.2 °C -14.6 °C 34130.9 hPa NNE 11.9 km/h 11.9 km/h 74 % 0 mm
14:02 -12.2 °C -14.6 °C 34130.9 hPa NE 15.6 km/h 15.6 km/h 74 % 0 mm
14:07 -12.2 °C -14.9 °C 34130.9 hPa NNW 15 km/h 15 km/h 72 % 0 mm
14:12 -12.2 °C -14.8 °C 34130.9 hPa ENE 9 km/h 9 km/h 73 % 0 mm
14:17 -12.2 °C -14.8 °C 34130.9 hPa NE 9 km/h 9 km/h 73 % 0 mm
14:23 -12.1 °C -14.7 °C 34130.9 hPa ENE 9 km/h 9 km/h 73 % 0 mm
14:28 -12 °C -14.6 °C 34130.9 hPa NNE 9 km/h 9 km/h 73 % 0 mm
14:34 -12.1 °C -14.8 °C 34130.9 hPa NE 12.7 km/h 12.7 km/h 72 % 0 mm
14:40 -12.1 °C -14.8 °C 34130.9 hPa NE 7.7 km/h 12.9 km/h 71 % 0 mm
14:47 -12.1 °C -14.9 °C 34130.9 hPa NNE 11.9 km/h 11.9 km/h 70 % 0 mm
14:52 -12 °C -14.9 °C 34130.9 hPa NNW 6 km/h 6 km/h 70 % 0 mm
14:56 -12 °C -14.9 °C 34130.9 hPa NNE 9 km/h 9 km/h 70 % 0 mm
15:01 -12.1 °C -14.9 °C 34130.9 hPa NNE 9 km/h 9 km/h 70 % 0 mm
15:06 -12.1 °C -15.1 °C 34130.9 hPa NNE 11.9 km/h 11.9 km/h 69 % 0 mm
15:08 -12.1 °C -15.1 °C 34130.9 hPa NE 9 km/h 9 km/h 69 % 0 mm
15:13 -12 °C -15.1 °C 34130.9 hPa ENE 11.9 km/h 11.9 km/h 69 % 0 mm
15:18 -12 °C -15.1 °C 34130.9 hPa NE 12.7 km/h 12.7 km/h 69 % 0 mm
15:23 -11.9 °C -14.9 °C 34130.9 hPa NNW 9 km/h 9 km/h 69 % 0 mm
15:29 -11.9 °C -14.9 °C 34130.9 hPa NNE 6 km/h 6 km/h 69 % 0 mm
15:34 -11.8 °C -14.8 °C 34130.9 hPa SW 6 km/h 6 km/h 70 % 0 mm
15:35 -11.8 °C -14.7 °C 34130.9 hPa NNW 6 km/h 6 km/h 70 % 0 mm
15:40 -11.7 °C -14.6 °C 34130.9 hPa West 9.3 km/h 9.3 km/h 70 % 0 mm
15:42 -11.7 °C -14.6 °C 34130.9 hPa SW 9 km/h 9 km/h 70 % 0 mm
15:47 -11.7 °C -14.6 °C 34130.9 hPa West 20.9 km/h 20.9 km/h 70 % 0 mm
15:52 -11.7 °C -14.7 °C 34130.9 hPa West 15 km/h 15 km/h 69 % 0 mm
15:58 -11.7 °C -14.9 °C 34130.9 hPa West 15 km/h 15 km/h 68 % 0 mm
16:03 -11.7 °C -14.9 °C 34130.9 hPa WSW 11.9 km/h 11.9 km/h 68 % 0 mm
16:09 -11.9 °C -15.1 °C 34130.9 hPa West 11.9 km/h 11.9 km/h 68 % 0 mm
16:18 -12.2 °C -15.4 °C 34130.9 hPa West 11.9 km/h 11.9 km/h 67 % 0 mm
16:20 -12.2 °C -15.4 °C 34130.9 hPa West 16.6 km/h 16.6 km/h 67 % 0 mm
16:27 -12.4 °C -15.6 °C 34164.7 hPa West 20.9 km/h 20.9 km/h 67 % 0 mm
16:32 -12.5 °C -15.7 °C 34164.7 hPa WSW 17.9 km/h 17.9 km/h 67 % 0 mm
16:43 -12.8 °C -16.2 °C 34164.7 hPa West 17.9 km/h 17.9 km/h 66 % 0 mm
16:46 -12.9 °C -16.1 °C 34164.7 hPa WSW 11.9 km/h 11.9 km/h 67 % 0 mm
16:51 -12.9 °C -16.1 °C 34164.7 hPa WSW 9.3 km/h 9.3 km/h 67 % 0 mm
16:56 -13 °C -16.2 °C 34164.7 hPa WSW 9 km/h 9 km/h 67 % 0 mm
17:03 -13.2 °C -16.3 °C 34164.7 hPa WSW 15 km/h 15 km/h 68 % 0 mm
17:09 -13.3 °C -16.3 °C 34198.6 hPa WNW 15 km/h 15 km/h 68 % 0 mm
17:15 -13.4 °C -16.5 °C 34198.6 hPa West 15.3 km/h 15.3 km/h 68 % 0 mm
17:19 -13.4 °C -16.5 °C 34198.6 hPa West 11.9 km/h 11.9 km/h 68 % 0 mm
17:25 -13.4 °C -16.5 °C 34198.6 hPa WSW 11.9 km/h 11.9 km/h 68 % 0 mm
17:30 -13.6 °C -16.6 °C 34198.6 hPa WSW 17.9 km/h 17.9 km/h 68 % 0 mm
17:35 -13.6 °C -16.6 °C 34198.6 hPa West 15 km/h 15 km/h 69 % 0 mm
17:37 -13.6 °C -16.6 °C 34198.6 hPa West 12.2 km/h 12.2 km/h 69 % 0 mm
17:42 -13.7 °C -16.7 °C 34198.6 hPa West 19.6 km/h 19.6 km/h 69 % 0 mm
17:46 -13.7 °C -16.7 °C 34198.6 hPa West 17.9 km/h 17.9 km/h 69 % 0 mm
17:48 -13.8 °C -16.7 °C 34198.6 hPa WNW 17.9 km/h 17.9 km/h 69 % 0 mm
17:53 -13.8 °C -16.8 °C 34198.6 hPa WSW 11.9 km/h 11.9 km/h 69 % 0 mm
17:58 -13.9 °C -16.7 °C 34198.6 hPa SW 11.9 km/h 11.9 km/h 70 % 0 mm
18:03 -13.9 °C -16.7 °C 34198.6 hPa West 15 km/h 15 km/h 70 % 0 mm
18:07 -13.9 °C -16.8 °C 34198.6 hPa WSW 11.9 km/h 11.9 km/h 70 % 0 mm
18:12 -13.9 °C -16.8 °C 34198.6 hPa West 7.6 km/h 7.6 km/h 70 % 0 mm
18:24 -14 °C -16.8 °C 34198.6 hPa West 15 km/h 15 km/h 70 % 0 mm
18:25 -15.1 °C -17.3 °C 34256.2 hPa WSW 5.1 km/h 7.7 km/h 75 % 0 mm
18:29 -14.1 °C -16.9 °C 34198.6 hPa WNW 15.6 km/h 15.6 km/h 70 % 0 mm
18:30 -14.1 °C -16.9 °C 34198.6 hPa WSW 12.9 km/h 15.6 km/h 70 % 0 mm
18:35 -15.1 °C -17.3 °C 34256.2 hPa WSW 5.1 km/h 7.7 km/h 75 % 0 mm
18:39 -14.1 °C -16.9 °C 34198.6 hPa West 5.1 km/h   70 % 0 mm
18:44 -14.1 °C -16.9 °C 34198.6 hPa WSW 9 km/h   70 % 0 mm
18:45 -14.1 °C -16.9 °C 34198.6 hPa WSW 6 km/h 6 km/h 70 % 0 mm
18:50 -14.1 °C -16.8 °C 34198.6 hPa WSW 6 km/h 6 km/h 71 % 0 mm
18:55 -14.1 °C -16.8 °C 34198.6 hPa WSW 4.2 km/h   71 % 0 mm
19:00 -14.1 °C -16.8 °C 34198.6 hPa WSW 6 km/h 6 km/h 71 % 0 mm
19:03 -14.1 °C -16.8 °C 34198.6 hPa SW 6 km/h 6 km/h 71 % 0 mm
19:05 -15.2 °C -17.4 °C 34222.3 hPa SW 2.6 km/h 7.7 km/h 75 % 0 mm
19:06 -14.1 °C -16.8 °C 34222.3 hPa WSW 9.3 km/h 9.3 km/h 71 % 0 mm
19:10 -14.2 °C -16.9 °C 34222.3 hPa West 11.9 km/h 11.9 km/h 71 % 0 mm
19:15 -14.2 °C -16.9 °C 34222.3 hPa WSW 6 km/h 6 km/h 71 % 0 mm
19:20 -14.2 °C -16.9 °C 34198.6 hPa SW 6 km/h 6 km/h 71 % 0 mm
19:22 -14.2 °C -16.8 °C 34198.6 hPa SW 3.1 km/h   72 % 0 mm
19:23 -14.2 °C -16.8 °C 34198.6 hPa SW 3.1 km/h   72 % 0 mm
19:25 -15.3 °C -17.6 °C 34256.2 hPa WSW 5.1 km/h 7.7 km/h 75 % 0 mm
19:28 -14.2 °C -16.8 °C 34198.6 hPa South 3.1 km/h 5.1 km/h 72 % 0 mm
19:29 -14.2 °C -16.8 °C 34198.6 hPa South 6 km/h 6 km/h 72 % 0 mm
19:35 -14.2 °C -16.9 °C 34198.6 hPa WNW 5.1 km/h 12.9 km/h 71 % 0 mm
19:36 -14.1 °C -16.8 °C 34222.3 hPa WNW 6 km/h 6 km/h 71 % 0 mm
19:41 -14.1 °C -16.7 °C 34222.3 hPa NW 9 km/h 9 km/h 72 % 0 mm
19:45 -15.2 °C -17.4 °C 34256.2 hPa West 5.1 km/h 10.3 km/h 75 % 0 mm
19:46 -14.1 °C -16.7 °C 34222.3 hPa WSW 6.3 km/h 6.3 km/h 72 % 0 mm
19:48 -14.1 °C -16.7 °C 34222.3 hPa WSW 6 km/h 6 km/h 72 % 0 mm
19:53 -14.2 °C -16.8 °C 34222.3 hPa WSW 3.1 km/h   72 % 0 mm
19:55 -15.2 °C -17.4 °C 34256.2 hPa West 5.1 km/h 15.6 km/h 75 % 0 mm
19:58 -14.2 °C -16.8 °C 34222.3 hPa WSW 6 km/h 6 km/h 72 % 0 mm
20:00 -14.2 °C -16.8 °C 34222.3 hPa WSW 3.1 km/h   72 % 0 mm
20:05 -14.2 °C -16.8 °C 34198.6 hPa WSW 4.2 km/h 4.2 km/h 72 % 0 mm
20:10 -14.2 °C -16.8 °C 34198.6 hPa WSW 9 km/h 9 km/h 72 % 0 mm
20:12 -14.2 °C -16.8 °C 34198.6 hPa WSW 9 km/h 9 km/h 72 % 0 mm
20:15 -15.3 °C -17.6 °C 34256.2 hPa WSW 2.6 km/h 5.1 km/h 75 % 0 mm
20:17 -14.2 °C -16.8 °C 34198.6 hPa WSW 6.8 km/h 6.8 km/h 72 % 0 mm
20:18 -14.2 °C -16.8 °C 34198.6 hPa WSW 6.3 km/h 6.8 km/h 72 % 0 mm
20:24 -14.2 °C -16.8 °C 34222.3 hPa WSW 6.8 km/h 6.8 km/h 72 % 0 mm
20:25 -15.3 °C -17.6 °C 34256.2 hPa WSW 2.6 km/h 5.1 km/h 75 % 0 mm
20:28 -14.2 °C -16.7 °C 34222.3 hPa WSW 6 km/h 6.3 km/h 73 % 0 mm
20:33 -14.3 °C -16.8 °C 34222.3 hPa WSW 15 km/h 15 km/h 73 % 0 mm
20:35 -15.3 °C -17.6 °C 34256.2 hPa WSW 2.6 km/h 7.7 km/h 75 % 0 mm
20:38 -14.3 °C -16.8 °C 34222.3 hPa WSW 9.3 km/h 9.3 km/h 73 % 0 mm
20:43 -14.3 °C -16.8 °C 34222.3 hPa West 11.6 km/h 11.6 km/h 73 % 0 mm
20:45 -15.3 °C -17.6 °C 34256.2 hPa WSW 7.7 km/h 10.3 km/h 75 % 0 mm
20:46 -14.3 °C -16.8 °C 34222.3 hPa West 6 km/h 6 km/h 73 % 0 mm
20:51 -14.3 °C -16.8 °C 34222.3 hPa WSW 3.7 km/h 3.7 km/h 73 % 0 mm
20:55 -15.3 °C -17.6 °C 34256.2 hPa WSW 7.7 km/h 10.3 km/h 75 % 0 mm
20:56 -14.3 °C -16.8 °C 34222.3 hPa WSW 15 km/h 15 km/h 73 % 0 mm
20:58 -14.3 °C -16.8 °C 34222.3 hPa WSW 6 km/h 6 km/h 73 % 0 mm
21:03 -14.3 °C -16.8 °C 34222.3 hPa West 6 km/h 6 km/h 73 % 0 mm
21:05 -15.2 °C -17.4 °C 34293.4 hPa WSW 7.7 km/h 10.3 km/h 75 % 0 mm
21:07 -14.3 °C -16.8 °C 34222.3 hPa West 6 km/h   73 % 0 mm
21:13 -14.3 °C -16.8 °C 34222.3 hPa WNW 9 km/h 9 km/h 73 % 0 mm
21:19 -14.3 °C -16.8 °C 34222.3 hPa WSW 9 km/h 9 km/h 73 % 0 mm
21:25 -14.3 °C -16.8 °C 34222.3 hPa West 11.9 km/h 11.9 km/h 73 % 0 mm
21:30 -14.3 °C -16.8 °C 34222.3 hPa West 6.8 km/h 6.8 km/h 73 % 0 mm
21:35 -15.1 °C -17.4 °C 34293.4 hPa WSW 2.6 km/h 15.6 km/h 75 % 0 mm
21:37 -14.3 °C -16.8 °C 34222.3 hPa NW 6 km/h 6 km/h 73 % 0 mm
21:45 -14.4 °C -16.9 °C 34222.3 hPa WSW 6 km/h 6 km/h 73 % 0 mm
21:51 -14.4 °C -16.9 °C 34222.3 hPa West 6 km/h 6 km/h 73 % 0 mm
21:55 -15.1 °C -17.4 °C 34293.4 hPa WSW 2.6 km/h 7.7 km/h 75 % 0 mm
22:01 -14.4 °C -16.8 °C 34222.3 hPa Calm     74 % 0 mm
22:05 -15.1 °C -17.4 °C 34293.4 hPa WSW 7.7 km/h 12.9 km/h 75 % 0 mm
22:07 -14.5 °C -16.9 °C 34222.3 hPa West 3.1 km/h 3.1 km/h 74 % 0 mm
22:15 -14.5 °C -16.9 °C 34222.3 hPa West 4.2 km/h 4.2 km/h 74 % 0 mm
22:20 -14.4 °C -16.8 °C 34198.6 hPa West 6 km/h 6 km/h 74 % 0 mm
22:22 -14.4 °C -16.8 °C 34198.6 hPa West 9 km/h 9 km/h 74 % 0 mm
22:25 -15.2 °C -17.6 °C 34293.4 hPa West 12.9 km/h 20.8 km/h 74 % 0 mm
22:28 -14.5 °C -16.9 °C 34198.6 hPa West 6 km/h   74 % 0 mm
22:33 -14.5 °C -16.9 °C 34198.6 hPa WNW 6 km/h 6 km/h 74 % 0 mm
22:40 -14.5 °C -16.9 °C 34222.3 hPa WNW 3.1 km/h 3.1 km/h 74 % 0 mm
22:45 -15.2 °C -17.6 °C 34293.4 hPa West 5.1 km/h 10.3 km/h 74 % 0 mm
22:46 -14.6 °C -16.9 °C 34222.3 hPa WNW 3.1 km/h   74 % 0 mm
22:54 -14.6 °C -16.9 °C 34256.2 hPa West 3.1 km/h 3.1 km/h 74 % 0 mm
22:59 -14.6 °C -16.9 °C 34256.2 hPa West 6 km/h 6 km/h 74 % 0 mm
23:11 -14.7 °C -17.1 °C 34256.2 hPa West 4.2 km/h 4.2 km/h 74 % 0 mm
23:16 -14.7 °C -17.1 °C 34256.2 hPa West 6 km/h   74 % 0 mm
23:23 -14.8 °C -17.2 °C 34256.2 hPa West 6 km/h 6 km/h 74 % 0 mm
23:25 -15.4 °C -17.8 °C 34327.3 hPa WSW 5.1 km/h 7.7 km/h 74 % 0 mm
23:28 -14.8 °C -17.1 °C 34256.2 hPa West 6 km/h 6 km/h 75 % 0 mm
23:29 -14.8 °C -17.1 °C 34256.2 hPa WSW 6.3 km/h 6.3 km/h 75 % 0 mm
23:35 -14.9 °C -17.2 °C 34256.2 hPa WSW 9 km/h 9 km/h 75 % 0 mm
23:40 -14.8 °C -17.2 °C 34256.2 hPa WSW 11.9 km/h 11.9 km/h 74 % 0 mm
23:45 -14.9 °C -17.2 °C 34256.2 hPa WSW 6 km/h 6 km/h 75 % 0 mm
23:46 -14.9 °C -17.2 °C 34256.2 hPa WSW 6.8 km/h 6.8 km/h 75 % 0 mm
23:52 -15 °C -17.3 °C 34256.2 hPa WSW 9 km/h 9 km/h 75 % 0 mm
23:53 -15 °C -17.3 °C 34256.2 hPa WSW 6 km/h 6 km/h 75 % 0 mm
23:54 -15 °C -17.3 °C 34256.2 hPa WSW 6.3 km/h 6.3 km/h 75 % 0 mm
23:55 -15 °C -17.3 °C 34256.2 hPa WSW 6 km/h 6 km/h 75 % 0 mm
23:56 -15 °C -17.3 °C 34256.2 hPa West 8.5 km/h 8.5 km/h 75 % 0 mm
23:57 -15 °C -17.3 °C 34256.2 hPa West 9 km/h 9 km/h 75 % 0 mm
23:58 -15 °C -17.3 °C 34256.2 hPa West 9 km/h 9 km/h 75 % 0 mm
Meteo Sesrovires
Elogis d' Weather Underground - 3.5 mb

Guio original per  Jim McMurry - jmcmurry@mwt.net Adaptat per a la plantilla per  Wim van der Kuil - Leuven-Template.eu

Trobareu la nostra informacio del temps tambe a:

Weather Underground

AWEKAS